Time;durP1;ratioP1;P1;durP2;ratioP2;P2;SDS_P1;SDS_P2;PMS_P1;PMS_P2;Temp;Humidity;BMP_temperature;BMP_pressure;BME280_temperature;BME280_humidity;BME280_pressure;Samples;Min_cycle;Max_cycle;Signal;HPM_P1;HPM_P2
2022/08/23 00:01:57;;;;;;;11.67;8.60;;;;;;;18.03;100.00;99922.59;1416104;92;21335;-79
2022/08/23 00:04:28;;;;;;;13.68;9.25;;;;;;;18.03;100.00;99931.97;1407371;91;21546;-79
2022/08/23 00:06:55;;;;;;;9.37;8.37;;;;;;;18.02;100.00;99930.86;1414455;91;21459;-78
2022/08/23 00:09:24;;;;;;;10.70;8.57;;;;;;;17.94;100.00;99926.53;1409756;91;21394;-77
2022/08/23 00:12:08;;;;;;;11.47;8.33;;;;;;;17.85;100.00;99926.45;1406498;91;21349;-77
2022/08/23 00:14:42;;;;;;;10.40;8.60;;;;;;;17.78;100.00;99912.22;1405775;91;21627;-79
2022/08/23 00:17:10;;;;;;;11.80;8.57;;;;;;;17.75;100.00;99921.98;1412441;91;21527;-76
2022/08/23 00:19:38;;;;;;;9.93;8.47;;;;;;;17.75;100.00;99925.50;1416581;92;22255;-76
2022/08/23 00:22:05;;;;;;;7.13;6.43;;;;;;;17.75;100.00;99923.31;1415224;92;21479;-76
2022/08/23 00:24:32;;;;;;;9.33;8.07;;;;;;;17.72;100.00;99923.24;1413385;91;21386;-77
2022/08/23 00:27:15;;;;;;;9.07;7.10;;;;;;;17.70;100.00;99929.83;1402901;92;21401;-75
2022/08/23 00:30:04;;;;;;;8.83;7.70;;;;;;;17.67;100.00;99932.91;1406508;92;21594;-76
2022/08/23 00:32:34;;;;;;;7.50;6.80;;;;;;;17.64;100.00;99931.99;1405549;91;21404;-74
2022/08/23 00:35:02;;;;;;;7.72;7.00;;;;;;;17.59;100.00;99929.40;1425958;89;21490;-74
2022/08/23 00:37:31;;;;;;;8.70;7.80;;;;;;;17.57;100.00;99930.11;1443040;89;22218;-74
2022/08/23 00:39:58;;;;;;;7.83;7.03;;;;;;;17.60;100.00;99941.73;1438587;89;22075;-74
2022/08/23 00:48:13;;;;;;;8.45;7.65;;;;;;;17.74;100.00;99944.43;1424740;89;21428;-77
2022/08/23 00:50:44;;;;;;;7.80;6.70;;;;;;;17.75;100.00;99947.41;1441957;89;21389;-77
2022/08/23 00:53:19;;;;;;;7.83;7.03;;;;;;;17.78;100.00;99943.85;1440464;89;21539;-78
2022/08/23 00:55:50;;;;;;;8.77;6.83;;;;;;;17.85;100.00;99938.48;1370000;91;22581;-78
2022/08/23 00:58:19;;;;;;;8.37;7.57;;;;;;;17.94;100.00;99948.47;1447106;89;21368;-77
2022/08/23 01:00:48;;;;;;;8.07;7.27;;;;;;;18.00;100.00;99940.42;1440579;89;21560;-76
2022/08/23 01:03:17;;;;;;;10.70;9.08;;;;;;;18.02;100.00;99936.21;1448902;89;21449;-77
2022/08/23 01:06:06;;;;;;;15.80;8.27;;;;;;;18.03;100.00;99940.52;1433146;89;21567;-78
2022/08/23 01:08:33;;;;;;;9.83;8.60;;;;;;;18.02;100.00;99929.00;1437173;89;21463;-78
2022/08/23 01:11:08;;;;;;;17.33;9.03;;;;;;;18.07;100.00;99935.56;1417793;89;21553;-77
2022/08/23 01:13:48;;;;;;;18.23;9.63;;;;;;;18.10;100.00;99940.02;1431283;89;21553;-76
2022/08/23 01:16:32;;;;;;;15.58;10.08;;;;;;;18.12;100.00;99935.77;1451371;89;21360;-78
2022/08/23 01:19:03;;;;;;;22.60;11.73;;;;;;;18.15;100.00;99950.08;1398167;91;21524;-78
2022/08/23 01:21:46;;;;;;;30.57;11.93;;;;;;;18.18;100.00;99942.48;1431178;91;21523;-78
2022/08/23 01:24:13;;;;;;;16.23;11.43;;;;;;;18.22;100.00;99946.37;1426470;90;21457;-78
2022/08/23 01:26:39;;;;;;;27.52;11.63;;;;;;;18.25;100.00;99942.45;1435852;90;21346;-78
2022/08/23 01:29:06;;;;;;;32.45;9.60;;;;;;;18.27;100.00;99939.06;1439690;89;21381;-77
2022/08/23 01:31:34;;;;;;;15.53;9.00;;;;;;;18.28;100.00;99935.34;1437526;89;21383;-76
2022/08/23 01:34:06;;;;;;;13.70;9.85;;;;;;;18.29;100.00;99931.61;1440841;89;22388;-77
2022/08/23 01:36:33;;;;;;;20.88;8.50;;;;;;;18.29;100.00;99933.47;1435501;89;22128;-78
2022/08/23 01:38:59;;;;;;;10.98;8.70;;;;;;;18.29;100.00;99934.30;1433615;90;22284;-78
2022/08/23 01:41:25;;;;;;;10.55;7.97;;;;;;;18.24;100.00;99928.24;1437952;90;21432;-78
2022/08/23 01:43:51;;;;;;;11.73;9.25;;;;;;;18.19;100.00;99921.87;1438415;90;21618;-77
2022/08/23 01:46:20;;;;;;;9.38;8.38;;;;;;;18.15;100.00;99919.28;1436483;89;22402;-78
2022/08/23 01:48:49;;;;;;;11.37;8.90;;;;;;;18.11;100.00;99922.09;1400791;93;21435;-78
2022/08/23 01:51:19;;;;;;;22.65;9.13;;;;;;;18.05;100.00;99925.08;1436137;89;21464;-77
2022/08/23 01:53:46;;;;;;;9.53;7.97;;;;;;;18.02;100.00;99924.16;1441266;89;22373;-77
2022/08/23 01:56:14;;;;;;;11.87;8.20;;;;;;;17.99;100.00;99925.92;1441858;89;21501;-77
2022/08/23 01:58:40;;;;;;;8.83;7.30;;;;;;;17.96;100.00;99937.86;1438742;89;21406;-78
2022/08/23 02:01:06;;;;;;;8.77;6.67;;;;;;;17.89;100.00;99936.21;1438287;89;21406;-78
2022/08/23 02:03:33;;;;;;;7.80;6.17;;;;;;;17.76;100.00;99939.70;1437097;89;21368;-78
2022/08/23 02:06:00;;;;;;;11.53;7.33;;;;;;;17.64;100.00;99938.68;1430489;89;21372;-77
2022/08/23 02:11:15;;;;;;;14.53;7.77;;;;;;;17.58;100.00;99938.47;1426664;89;21487;-77
2022/08/23 02:13:43;;;;;;;13.40;6.67;;;;;;;17.56;100.00;99935.16;1431335;89;21405;-77
2022/08/23 02:16:11;;;;;;;9.67;7.47;;;;;;;17.54;100.00;99937.21;1406590;92;21433;-77
2022/08/23 02:18:37;;;;;;;15.38;7.35;;;;;;;17.55;100.00;99930.85;1419732;90;21503;-77
2022/08/23 02:21:04;;;;;;;21.27;7.87;;;;;;;17.55;100.00;99934.02;1430381;91;22522;-77
2022/08/23 02:23:30;;;;;;;17.17;7.93;;;;;;;17.57;100.00;99935.46;1437806;89;21323;-77
2022/08/23 02:25:56;;;;;;;14.60;8.40;;;;;;;17.60;100.00;99931.03;1435125;89;21509;-78
2022/08/23 02:28:23;;;;;;;18.27;8.30;;;;;;;17.60;100.00;99929.70;1431242;90;21469;-76
2022/08/23 02:30:50;;;;;;;19.70;7.47;;;;;;;17.60;100.00;99924.34;1431991;90;21361;-78
2022/08/23 02:33:17;;;;;;;25.17;8.23;;;;;;;17.61;100.00;99927.88;1431159;90;21440;-77
2022/08/23 02:35:43;;;;;;;20.40;8.43;;;;;;;17.57;100.00;99928.77;1437081;90;22573;-77
2022/08/23 02:38:11;;;;;;;13.93;8.10;;;;;;;17.51;100.00;99922.91;1429651;90;21368;-76
2022/08/23 02:40:39;;;;;;;22.67;7.77;;;;;;;17.48;100.00;99927.33;1431075;91;21338;-77
2022/08/23 02:43:07;;;;;;;24.40;9.00;;;;;;;17.48;100.00;99927.33;1438839;89;21456;-77
2022/08/23 02:45:34;;;;;;;19.30;7.50;;;;;;;17.49;100.00;99929.48;1428307;89;21472;-77
2022/08/23 02:48:00;;;;;;;9.87;7.10;;;;;;;17.48;100.00;99931.34;1424957;91;21899;-77
2022/08/23 02:50:27;;;;;;;20.20;7.77;;;;;;;17.46;100.00;99934.73;1406981;93;22455;-78
2022/08/23 02:52:54;;;;;;;15.80;7.50;;;;;;;17.44;100.00;99939.48;1417158;92;21540;-77
2022/08/23 02:55:21;;;;;;;13.97;7.43;;;;;;;17.46;100.00;99940.08;1433048;89;21529;-77
2022/08/23 02:57:47;;;;;;;17.53;8.50;;;;;;;17.45;100.00;99943.80;1439463;89;21514;-77
2022/08/23 03:00:16;;;;;;;13.63;8.20;;;;;;;17.41;100.00;99947.92;1438758;89;22484;-77
2022/08/23 03:02:42;;;;;;;9.57;8.23;;;;;;;17.39;100.00;99949.97;1444357;89;21427;-76
2022/08/23 03:05:11;;;;;;;20.90;9.17;;;;;;;17.38;100.00;99948.33;1437634;89;21478;-77
2022/08/23 03:07:38;;;;;;;16.20;8.47;;;;;;;17.37;100.00;99950.67;1429619;89;21524;-76
2022/08/23 03:10:08;;;;;;;20.53;8.80;;;;;;;17.37;100.00;99953.34;1408645;89;21442;-76
2022/08/23 03:12:35;;;;;;;22.85;9.63;;;;;;;17.36;100.00;99955.72;1440853;89;22393;-77
2022/08/23 03:15:01;;;;;;;19.77;9.30;;;;;;;17.36;100.00;99956.54;1409607;89;21408;-77
2022/08/23 03:17:27;;;;;;;13.43;8.50;;;;;;;17.39;100.00;99962.00;1427609;89;21383;-78
2022/08/23 03:19:53;;;;;;;10.87;9.80;;;;;;;17.41;100.00;99967.98;1401512;91;21479;-77
2022/08/23 03:22:21;;;;;;;20.03;11.07;;;;;;;17.45;100.00;99968.39;1439012;89;21389;-78
2022/08/23 03:24:48;;;;;;;26.83;10.17;;;;;;;17.49;100.00;99978.49;1424987;89;22418;-77
2022/08/23 03:27:15;;;;;;;15.97;10.20;;;;;;;17.51;100.00;99983.63;1430180;89;22042;-78
2022/08/23 03:29:41;;;;;;;20.10;11.57;;;;;;;17.54;100.00;99985.37;1434657;89;21448;-78
2022/08/23 03:32:07;;;;;;;13.60;9.40;;;;;;;17.57;100.00;99985.48;1441535;89;21380;-78
2022/08/23 03:34:33;;;;;;;33.00;10.50;;;;;;;17.62;100.00;99988.89;1436039;89;21382;-77
2022/08/23 03:37:00;;;;;;;33.90;9.90;;;;;;;17.68;100.00;99997.44;1445014;89;21360;-77
2022/08/23 03:39:26;;;;;;;19.10;10.00;;;;;;;17.70;100.00;99998.06;1441311;89;21457;-77
2022/08/23 03:41:52;;;;;;;31.30;10.53;;;;;;;17.76;100.00;100005.27;1425131;89;21508;-76
2022/08/23 03:44:18;;;;;;;17.23;9.43;;;;;;;17.80;100.00;100013.22;1436584;89;21383;-77
2022/08/23 03:46:44;;;;;;;26.65;11.08;;;;;;;17.84;100.00;100010.95;1433018;89;22410;-78
2022/08/23 03:49:10;;;;;;;13.58;11.48;;;;;;;17.89;100.00;100021.36;1445109;89;21486;-78
2022/08/23 03:51:36;;;;;;;19.37;11.07;;;;;;;17.94;100.00;100025.59;1439330;89;21486;-77
2022/08/23 03:54:03;;;;;;;35.37;11.73;;;;;;;17.97;100.00;100022.50;1436150;89;21426;-77
2022/08/23 03:56:35;;;;;;;24.73;11.67;;;;;;;17.93;100.00;100026.63;1441231;89;21390;-77
2022/08/23 03:59:06;;;;;;;35.38;12.05;;;;;;;17.93;100.00;100019.12;1446384;89;21353;-78
2022/08/23 04:01:33;;;;;;;34.20;13.00;;;;;;;17.96;100.00;100024.88;1432785;89;22479;-78
2022/08/23 04:03:59;;;;;;;26.77;13.22;;;;;;;18.01;100.00;100027.77;1441779;89;21442;-77
2022/08/23 04:06:27;;;;;;;71.87;13.03;;;;;;;18.07;100.00;100034.16;1436195;89;21354;-76
2022/08/23 04:08:54;;;;;;;64.03;13.53;;;;;;;18.12;100.00;100038.35;1437818;89;22226;-77
2022/08/23 04:11:22;;;;;;;32.70;12.50;;;;;;;18.18;100.00;100035.36;1424638;89;21591;-78
2022/08/23 04:13:48;;;;;;;46.85;11.95;;;;;;;18.21;100.00;100035.80;1437036;89;21574;-78
2022/08/23 04:16:17;;;;;;;48.58;13.43;;;;;;;18.24;100.00;100033.20;1429539;89;22411;-77
2022/08/23 04:18:44;;;;;;;41.60;12.47;;;;;;;18.29;100.00;100030.72;1439185;89;21618;-75
2022/08/23 04:21:15;;;;;;;44.67;13.22;;;;;;;18.33;100.00;100026.62;1431798;89;22421;-76
2022/08/23 04:23:42;;;;;;;53.08;14.28;;;;;;;18.33;100.00;100025.28;1429362;89;22374;-77
2022/08/23 04:26:08;;;;;;;40.00;12.35;;;;;;;18.36;100.00;100026.20;1425099;89;21317;-76
2022/08/23 04:28:36;;;;;;;52.50;13.98;;;;;;;18.34;100.00;100030.94;1437029;89;21398;-75
2022/08/23 04:31:03;;;;;;;22.40;12.53;;;;;;;18.37;100.00;100024.34;1428254;89;21459;-77
2022/08/23 04:33:32;;;;;;;34.80;13.05;;;;;;;18.40;100.00;100018.56;1435109;89;22305;-75
2022/08/23 04:36:00;;;;;;;36.77;13.15;;;;;;;18.41;100.00;100021.05;1421465;89;21977;-75
2022/08/23 04:38:27;;;;;;;46.15;13.83;;;;;;;18.43;100.00;100020.30;1423097;89;21397;-77
2022/08/23 04:43:40;;;;;;;26.05;13.18;;;;;;;18.49;100.00;100018.12;1432310;89;21398;-77
2022/08/23 04:46:07;;;;;;;23.25;11.48;;;;;;;18.55;100.00;100025.02;1427785;89;21444;-76
2022/08/23 04:48:34;;;;;;;29.63;12.40;;;;;;;18.62;100.00;100033.88;1429525;91;21402;-76
2022/08/23 04:51:01;;;;;;;38.02;13.35;;;;;;;18.69;100.00;100043.53;1434963;89;21344;-76
2022/08/23 04:53:33;;;;;;;32.50;13.38;;;;;;;18.71;100.00;100037.98;1428787;90;21385;-77
2022/08/23 04:55:58;;;;;;;34.58;14.18;;;;;;;18.71;100.00;100037.98;1419569;89;21919;-77
2022/08/23 04:58:24;;;;;;;27.67;13.13;;;;;;;18.77;100.00;100042.53;1436150;90;21404;-77
2022/08/23 05:00:53;;;;;;;22.10;14.23;;;;;;;18.86;100.00;100051.98;1440731;89;21442;-78
2022/08/23 05:03:20;;;;;;;20.60;11.35;;;;;;;18.92;100.00;100056.50;1446357;90;22442;-77
2022/08/23 05:05:46;;;;;;;35.05;13.70;;;;;;;18.99;100.00;100061.02;1434389;90;21414;-78
2022/08/23 05:08:12;;;;;;;49.88;12.15;;;;;;;19.02;100.00;100061.93;1440140;89;21383;-77
2022/08/23 05:10:39;;;;;;;23.00;13.28;;;;;;;19.05;100.00;100069.58;1438165;90;21360;-78
2022/08/23 05:13:05;;;;;;;19.40;11.95;;;;;;;19.05;100.00;100064.22;1428132;90;22418;-77
2022/08/23 05:15:31;;;;;;;15.63;13.60;;;;;;;19.01;100.00;100071.02;1434321;89;21412;-77
2022/08/23 05:17:56;;;;;;;23.05;13.30;;;;;;;19.03;100.00;100071.64;1428307;90;21391;-79
2022/08/23 05:20:22;;;;;;;19.92;13.30;;;;;;;19.07;100.00;100070.17;1432712;89;21419;-76
2022/08/23 05:22:49;;;;;;;17.60;12.47;;;;;;;19.12;100.00;100078.41;1428711;89;21473;-77
2022/08/23 05:25:15;;;;;;;12.63;11.35;;;;;;;19.18;100.00;100076.22;1429530;89;22558;-77
2022/08/23 05:27:42;;;;;;;16.25;12.15;;;;;;;19.22;100.00;100080.14;1431580;91;22455;-77
2022/08/23 05:30:10;;;;;;;16.10;11.35;;;;;;;19.23;100.00;100072.39;1441538;89;21515;-76
2022/08/23 05:32:36;;;;;;;12.75;11.45;;;;;;;19.23;100.00;100079.61;1434821;89;21406;-77
2022/08/23 05:35:02;;;;;;;14.05;12.28;;;;;;;19.27;100.00;100074.94;1433874;89;22358;-77
2022/08/23 05:37:28;;;;;;;18.02;12.85;;;;;;;19.32;100.00;100068.94;1436861;89;21454;-76
2022/08/23 05:39:54;;;;;;;13.05;11.68;;;;;;;19.39;100.00;100074.59;1432412;89;21869;-76
2022/08/23 05:42:20;;;;;;;17.15;12.37;;;;;;;19.46;100.00;100068.36;1422287;89;21443;-77
2022/08/23 05:44:46;;;;;;;17.52;12.95;;;;;;;19.41;100.00;100071.67;1442910;89;21376;-77
2022/08/23 05:47:15;;;;;;;26.93;13.78;;;;;;;19.36;100.00;100062.95;1430333;89;22241;-76
2022/08/23 05:49:41;;;;;;;17.10;12.65;;;;;;;19.33;100.00;100060.69;1425506;90;21477;-77
2022/08/23 05:52:12;;;;;;;17.48;13.15;;;;;;;19.31;100.00;100065.44;1420437;91;21405;-76
2022/08/23 05:54:39;;;;;;;21.48;13.72;;;;;;;19.33;100.00;100071.42;1444755;89;22404;-77
2022/08/23 05:57:05;;;;;;;15.25;13.65;;;;;;;19.39;100.00;100065.20;1441245;89;21265;-77
2022/08/23 05:59:31;;;;;;;20.43;14.93;;;;;;;19.42;100.00;100067.98;1442066;90;21476;-76
2022/08/23 06:01:57;;;;;;;25.80;13.35;;;;;;;19.45;100.00;100066.20;1444020;89;22284;-76
2022/08/23 06:04:23;;;;;;;17.52;14.70;;;;;;;19.45;100.00;100068.89;1439559;89;21412;-77
2022/08/23 06:06:49;;;;;;;17.75;14.83;;;;;;;19.49;100.00;100070.62;1440055;89;21397;-77
2022/08/23 06:09:19;;;;;;;18.52;15.08;;;;;;;19.53;100.00;100067.80;1444457;89;21442;-78
2022/08/23 06:11:47;;;;;;;16.25;13.98;;;;;;;19.61;100.00;100070.23;1434336;89;23598;-77
2022/08/23 06:14:14;;;;;;;16.15;14.47;;;;;;;19.66;100.00;100074.47;1434787;89;21338;-76
2022/08/23 06:16:45;;;;;;;14.68;13.03;;;;;;;19.67;100.00;100081.48;1428700;89;21330;-78
2022/08/23 06:19:13;;;;;;;22.10;14.35;;;;;;;19.64;100.00;100075.17;1436348;91;21361;-78
2022/08/23 06:21:40;;;;;;;19.80;13.60;;;;;;;19.70;100.00;100077.02;1431626;89;21411;-77
2022/08/23 06:24:07;;;;;;;17.00;13.95;;;;;;;19.67;100.00;100070.73;1431165;90;21303;-77
2022/08/23 06:26:38;;;;;;;19.80;16.40;;;;;;;19.68;100.00;100068.38;1434654;89;22367;-78
2022/08/23 06:29:07;;;;;;;;;;;;;;;19.70;100.00;100063.59;1429604;91;21671;-78
2022/08/23 06:31:46;;;;;;;29.63;17.57;;;;;;;19.61;100.00;100071.57;1425937;89;20861;-78
2022/08/23 06:34:24;;;;;;;20.43;16.60;;;;;;;19.69;100.00;100074.04;1423936;89;22594;-86
2022/08/23 06:36:55;;;;;;;20.17;16.27;;;;;;;19.77;100.00;100075.13;1435937;89;21477;-86
2022/08/23 06:39:26;;;;;;;19.27;15.95;;;;;;;19.81;100.00;100072.83;1445959;89;22218;-83
2022/08/23 06:41:55;;;;;;;19.32;17.17;;;;;;;19.87;100.00;100077.85;1436255;89;21390;-87
2022/08/23 06:44:21;;;;;;;24.70;17.20;;;;;;;19.91;100.00;100082.59;1421058;89;21566;-85
2022/08/23 06:46:48;;;;;;;24.98;18.52;;;;;;;19.96;100.00;100079.23;1426630;89;21457;-83
2022/08/23 06:49:15;;;;;;;29.18;16.93;;;;;;;20.04;100.00;100087.02;1446249;90;21257;-87
2022/08/23 06:51:46;;;;;;;20.30;18.15;;;;;;;20.13;100.00;100083.02;1434904;89;21471;-85
2022/08/23 06:54:15;;;;;;;22.02;18.30;;;;;;;20.20;100.00;100091.87;1451022;89;21441;-87
2022/08/23 06:56:43;;;;;;;20.72;17.25;;;;;;;20.24;100.00;100095.75;1441263;89;21405;-84
2022/08/23 06:59:10;;;;;;;45.55;19.30;;;;;;;20.30;100.00;100092.71;1445362;90;21434;-85
2022/08/23 07:01:45;;;;;;;28.25;18.77;;;;;;;20.24;100.00;100090.38;1436067;89;21398;-87
2022/08/23 07:04:14;;;;;;;23.27;16.50;;;;;;;20.33;100.00;100099.52;1429582;90;21329;-83
2022/08/23 07:06:41;;;;;;;19.65;17.02;;;;;;;20.29;100.00;100092.42;1422472;89;22468;-86
2022/08/23 07:09:07;;;;;;;23.45;16.95;;;;;;;20.32;100.00;100093.85;1434150;89;21395;-86
2022/08/23 07:11:34;;;;;;;25.50;18.50;;;;;;;20.32;100.00;100093.85;1427100;89;21449;-86
2022/08/23 07:14:04;;;;;;;20.10;17.25;;;;;;;20.38;100.00;100099.69;1427132;91;21309;-86
2022/08/23 07:16:37;;;;;;;18.98;16.32;;;;;;;20.43;100.00;100102.55;1443248;89;21501;-84
2022/08/23 07:19:04;;;;;;;21.70;18.37;;;;;;;20.49;100.00;100099.79;1429433;89;21413;-82
2022/08/23 07:21:30;;;;;;;22.55;17.92;;;;;;;20.50;100.00;100096.58;1429260;89;21397;-82
2022/08/23 07:23:57;;;;;;;21.23;16.50;;;;;;;20.50;100.00;100099.27;1432222;91;22255;-86
2022/08/23 07:26:24;;;;;;;19.95;16.73;;;;;;;20.60;100.00;100096.94;1431226;89;21403;-86
2022/08/23 07:28:51;;;;;;;21.87;17.55;;;;;;;20.70;100.00;100094.55;1431089;89;21487;-86
2022/08/23 07:31:29;;;;;;;24.55;19.98;;;;;;;20.84;100.00;100095.77;1440061;89;21413;-85
2022/08/23 07:33:58;;;;;;;26.70;21.02;;;;;;;20.91;100.00;100088.44;1444121;89;22373;-87
2022/08/23 07:36:28;;;;;;;26.10;20.93;;;;;;;20.99;100.00;100086.80;1437613;89;21541;-83
2022/08/23 07:38:55;;;;;;;31.05;20.65;;;;;;;21.09;100.00;100080.38;1424690;90;21567;-87
2022/08/23 07:41:29;;;;;;;30.95;20.35;;;;;;;21.17;100.00;100089.47;1427445;89;21511;-83
2022/08/23 07:44:01;;;;;;;28.40;22.73;;;;;;;21.24;100.00;100089.94;1432738;89;21383;-87
2022/08/23 07:46:29;;;;;;;28.35;20.65;;;;;;;21.31;100.00;100094.70;1432071;90;22608;-84
2022/08/23 07:48:57;;;;;;;23.67;19.90;;;;;;;21.40;100.00;100094.19;1429315;89;22328;-88
2022/08/23 07:51:24;;;;;;;25.82;19.42;;;;;;;21.45;100.00;100104.29;1434054;89;22533;-84
2022/08/23 07:53:50;;;;;;;20.70;18.48;;;;;;;21.44;99.79;100103.19;1433567;89;21414;-83
2022/08/23 07:56:19;;;;;;;23.10;18.20;;;;;;;21.40;98.82;100109.52;1437260;90;21486;-88
2022/08/23 07:58:46;;;;;;;27.42;18.15;;;;;;;;;;1431392;89;21376;-87
2022/08/23 08:01:23;;;;;;;25.12;17.95;;;;;;;21.46;98.77;100105.92;1437105;89;21337;-87
2022/08/23 08:03:52;;;;;;;20.55;17.82;;;;;;;21.46;98.51;100108.61;1438965;89;21383;-85
2022/08/23 08:06:30;;;;;;;23.75;17.45;;;;;;;21.54;99.11;100109.65;1445141;90;21383;-87
2022/08/23 08:08:57;;;;;;;22.80;17.87;;;;;;;21.50;96.16;100100.92;1433163;89;21436;-87
2022/08/23 08:11:26;;;;;;;18.17;15.90;;;;;;;21.56;96.52;100099.48;1437504;89;22227;-87
2022/08/23 08:13:53;;;;;;;18.90;16.90;;;;;;;21.75;96.03;100103.47;1426227;89;22483;-87
2022/08/23 08:16:33;;;;;;;19.48;16.73;;;;;;;21.79;94.03;100104.67;1433789;91;21288;-88
2022/08/23 08:19:03;;;;;;;19.05;17.05;;;;;;;22.10;95.52;100114.37;1443966;89;21603;-85
2022/08/23 08:21:29;;;;;;;21.00;17.57;;;;;;;22.36;94.06;100115.85;1429955;89;21530;-85
2022/08/23 08:23:57;;;;;;;18.85;16.90;;;;;;;22.36;91.45;100119.08;1443008;89;22352;-88
2022/08/23 08:26:24;;;;;;;18.85;16.95;;;;;;;22.64;91.82;100125.11;1452637;89;22424;-88
2022/08/23 08:28:51;;;;;;;18.40;16.10;;;;;;;22.79;90.07;100129.53;1433901;89;22292;-88
2022/08/23 08:31:17;;;;;;;20.43;16.50;;;;;;;22.82;87.74;100129.06;1430031;89;21294;-86
2022/08/23 08:33:43;;;;;;;21.97;17.70;;;;;;;23.03;88.61;100136.28;1431289;89;21403;-85
2022/08/23 08:36:30;;;;;;;20.20;18.20;;;;;;;22.95;85.66;100130.17;1438926;89;22070;-88
2022/08/23 08:38:57;;;;;;;22.93;18.17;;;;;;;22.92;85.55;100127.92;1433294;89;21435;-85
2022/08/23 08:41:43;;;;;;;19.40;17.35;;;;;;;23.09;86.17;100132.09;1430555;90;21404;-85
2022/08/23 08:44:24;;;;;;;20.45;15.35;;;;;;;23.20;85.91;100131.80;1441014;89;21488;-88
2022/08/23 08:46:55;;;;;;;20.32;17.37;;;;;;;23.38;85.50;100134.33;1440520;89;22469;-84
2022/08/23 08:49:45;;;;;;;19.67;17.67;;;;;;;23.55;84.64;100140.33;1434809;89;21375;-87
2022/08/23 08:52:25;;;;;;;24.95;17.87;;;;;;;23.72;84.42;100141.77;1439016;89;21368;-87
2022/08/23 08:55:09;;;;;;;21.37;15.70;;;;;;;23.81;82.04;100142.48;1427111;89;21339;-86
2022/08/23 08:57:45;;;;;;;19.65;17.50;;;;;;;23.94;81.40;100144.59;1449074;89;21417;-84
2022/08/23 09:00:29;;;;;;;20.40;16.60;;;;;;;23.94;79.89;100140.03;1430467;89;21434;-86
2022/08/23 09:02:57;;;;;;;16.97;14.98;;;;;;;24.03;80.50;100141.27;1438329;90;21435;-86
2022/08/23 09:05:30;;;;;;;16.20;14.40;;;;;;;24.15;79.56;100141.20;1431149;89;21397;-87
2022/08/23 09:08:27;;;;;;;18.45;14.93;;;;;;;24.33;78.79;100144.20;1423107;91;22344;-85
2022/08/23 09:11:34;;;;;;;22.62;17.67;;;;;;;24.51;79.08;100145.87;1387653;93;22061;-88
2022/08/23 09:14:18;;;;;;;18.55;15.60;;;;;;;24.47;77.13;100147.44;1440767;89;22410;-86
2022/08/23 09:17:05;;;;;;;19.12;16.52;;;;;;;24.47;76.51;100151.50;1427984;89;21339;-86
2022/08/23 09:19:36;;;;;;;18.57;15.28;;;;;;;24.47;76.87;100139.33;1509991;89;21169;-85
2022/08/23 09:22:12;;;;;;;15.63;13.95;;;;;;;24.73;77.48;100141.89;1459429;89;21302;-82
2022/08/23 09:24:40;;;;;;;17.32;14.73;;;;;;;25.02;76.03;100145.28;1434841;91;21521;-85
2022/08/23 09:27:09;;;;;;;18.48;15.88;;;;;;;25.20;75.40;100150.95;1428003;89;21501;-84
2022/08/23 09:29:40;;;;;;;19.77;17.62;;;;;;;24.96;73.18;100148.98;1432539;89;21472;-84
2022/08/23 09:32:33;;;;;;;21.75;19.55;;;;;;;24.97;73.49;100146.05;1428933;89;21368;-81
2022/08/23 09:35:17;;;;;;;21.95;19.67;;;;;;;24.87;74.15;100151.30;1429843;89;22338;-83
2022/08/23 09:37:56;;;;;;;23.18;19.17;;;;;;;24.89;73.17;100153.77;1449320;89;21280;-84
2022/08/23 09:40:47;;;;;;;19.77;17.62;;;;;;;24.66;72.91;100151.53;1434894;89;21853;-83
2022/08/23 09:43:23;;;;;;;21.45;16.82;;;;;;;24.63;73.33;100149.84;1484680;89;22779;-83
2022/08/23 09:45:54;;;;;;;18.80;16.80;;;;;;;24.72;73.93;100150.55;1411929;89;21554;-84
2022/08/23 09:48:43;;;;;;;24.02;20.23;;;;;;;25.03;73.57;100151.00;1440038;89;21317;-85
2022/08/23 09:51:34;;;;;;;22.63;19.57;;;;;;;25.29;73.19;100155.40;1432705;90;21412;-84
2022/08/23 09:54:18;;;;;;;19.73;17.57;;;;;;;25.21;71.06;100152.08;1433837;89;21360;-85
2022/08/23 09:56:58;;;;;;;19.35;17.27;;;;;;;25.18;72.21;100146.34;1429432;90;21553;-84
2022/08/23 09:59:28;;;;;;;;;;;;;;;25.16;71.49;100143.88;1433005;89;21345;-82
2022/08/23 10:01:57;;;;;;;17.52;15.85;;;;;;;25.33;68.60;100143.02;1437556;89;20432;-85
2022/08/23 10:04:42;;;;;;;27.67;16.75;;;;;;;25.52;69.76;100140.27;1432101;89;21479;-85
2022/08/23 10:07:32;;;;;;;22.52;16.75;;;;;;;25.53;68.45;100137.83;1433237;89;21377;-85
2022/08/23 10:10:45;;;;;;;16.50;14.68;;;;;;;25.68;68.19;100133.66;1432118;89;21436;-83
2022/08/23 10:13:13;;;;;;;16.17;14.40;;;;;;;25.94;69.13;100135.58;1403620;91;21362;-85
2022/08/23 10:16:31;;;;;;;13.78;12.15;;;;;;;26.16;68.43;100128.74;1444182;89;21375;-86
2022/08/23 10:19:22;;;;;;;18.07;13.35;;;;;;;26.26;64.89;100128.00;1430410;89;21504;-89
2022/08/23 10:22:21;;;;;;;13.88;11.60;;;;;;;26.37;65.16;100132.98;1427165;89;21390;-84
2022/08/23 10:25:14;;;;;;;17.20;13.83;;;;;;;26.43;61.79;100131.39;1424484;89;21501;-88
2022/08/23 10:31:40;;;;;;;12.25;11.00;;;;;;;26.35;64.70;100130.52;1436377;89;21412;-89
2022/08/23 10:34:21;;;;;;;13.45;10.90;;;;;;;26.55;65.33;100126.62;1434286;89;22291;-81
2022/08/23 10:37:14;;;;;;;11.57;9.75;;;;;;;26.55;62.27;100118.48;1436488;89;22270;-80
2022/08/23 10:40:01;;;;;;;15.08;10.05;;;;;;;26.80;63.50;100121.09;1431057;89;22547;-80
2022/08/23 10:42:42;;;;;;;14.83;10.72;;;;;;;26.93;63.36;100121.16;1440099;89;21672;-87
2022/08/23 10:45:30;;;;;;;18.52;10.08;;;;;;;27.14;63.08;100116.66;1435941;90;22631;-92
2022/08/23 10:48:27;;;;;;;11.08;9.90;;;;;;;27.27;62.95;100122.98;1434361;89;21638;-90
2022/08/23 10:51:02;;;;;;;9.58;8.58;;;;;;;27.11;59.24;100123.44;1432370;90;21947;-86
2022/08/23 10:53:45;;;;;;;9.20;8.30;;;;;;;26.80;61.47;100119.73;1432620;89;21487;-86
2022/08/23 10:56:12;;;;;;;14.25;8.73;;;;;;;26.94;62.33;100118.19;1422219;89;22514;-91
2022/08/23 10:58:53;;;;;;;8.78;6.78;;;;;;;27.08;59.22;100121.80;1434860;89;22308;-91
2022/08/23 11:01:34;;;;;;;11.70;7.95;;;;;;;27.07;59.35;100116.07;1429862;89;21471;-85
2022/08/23 11:04:18;;;;;;;13.60;8.75;;;;;;;27.35;59.86;100119.76;1439616;89;21339;-89
2022/08/23 11:06:52;;;;;;;7.75;5.28;;;;;;;27.60;59.50;100118.22;1407582;91;21527;-85
2022/08/23 11:09:24;;;;;;;8.35;6.37;;;;;;;27.79;57.90;100119.35;1411982;91;21466;-84
2022/08/23 11:12:11;;;;;;;8.90;6.60;;;;;;;27.96;56.84;100122.37;1406944;91;21661;-87
2022/08/23 11:14:48;;;;;;;6.45;5.70;;;;;;;28.07;57.14;100107.70;1443224;89;22366;-87
2022/08/23 11:17:28;;;;;;;7.90;6.42;;;;;;;27.90;55.94;100107.96;1431545;91;21604;-85
2022/08/23 11:19:59;;;;;;;7.60;6.45;;;;;;;28.15;57.88;100103.64;1436515;89;21502;-86
2022/08/23 11:22:53;;;;;;;7.37;5.75;;;;;;;28.41;56.47;100104.44;1443789;89;21383;-86
2022/08/23 11:25:25;;;;;;;5.22;4.72;;;;;;;28.32;54.13;100098.19;1422864;90;21404;-87
2022/08/23 11:28:14;;;;;;;2.98;2.58;;;;;;;28.07;51.82;100102.27;1409475;93;21352;-90
2022/08/23 11:30:50;;;;;;;5.53;5.00;;;;;;;28.16;52.24;100093.83;1394771;91;21414;-89
2022/08/23 11:33:54;;;;;;;7.15;5.05;;;;;;;28.42;54.07;100091.13;1430143;89;21546;-90
2022/08/23 11:36:25;;;;;;;8.50;4.85;;;;;;;28.74;53.90;100092.14;1441804;90;22461;-92
2022/08/23 11:39:00;;;;;;;5.17;4.62;;;;;;;28.90;52.69;100088.84;1448766;89;21361;-90
2022/08/23 11:41:53;;;;;;;6.70;5.22;;;;;;;28.79;51.92;100092.14;1439562;89;21487;-90
2022/08/23 11:44:27;;;;;;;6.92;5.00;;;;;;;28.86;52.82;100087.75;1459746;88;21436;-85
2022/08/23 11:46:58;;;;;;;6.28;4.70;;;;;;;28.87;52.17;100081.23;1455175;88;22473;-89
2022/08/23 11:49:38;;;;;;;5.90;5.28;;;;;;;28.91;52.72;100076.84;1457531;88;21551;-83